Time;durP1;ratioP1;P1;durP2;ratioP2;P2;SDS_P1;SDS_P2;PMS_P1;PMS_P2;Temp;Humidity;BMP_temperature;BMP_pressure;BME280_temperature;BME280_humidity;BME280_pressure;Samples;Min_cycle;Max_cycle;Signal;HPM_P1;HPM_P2
2022/11/06 00:00:38;;;;;;;76.47;42.78;;;;;;;12.07;69.90;99377.53;5053650;28;20025;-42
2022/11/06 00:03:04;;;;;;;76.57;41.97;;;;;;;12.07;70.38;99380.19;5053252;28;20127;-42
2022/11/06 00:08:14;;;;;;;69.53;39.65;;;;;;;12.21;68.91;99375.53;5053669;28;20035;-42
2022/11/06 00:10:40;;;;;;;75.18;43.53;;;;;;;12.11;69.71;99385.91;5053278;28;20048;-42
2022/11/06 00:13:05;;;;;;;81.72;45.83;;;;;;;11.78;71.67;99380.88;5053336;28;20145;-42
2022/11/06 00:15:32;;;;;;;91.95;49.42;;;;;;;12.17;70.32;99374.34;5053004;28;20381;-42
2022/11/06 00:17:58;;;;;;;84.78;47.03;;;;;;;12.07;70.54;99374.88;5053085;28;20120;-42
2022/11/06 00:20:23;;;;;;;77.50;43.65;;;;;;;12.00;70.45;99383.97;5053307;28;20107;-42
2022/11/06 00:22:49;;;;;;;76.20;43.95;;;;;;;12.32;68.66;99368.63;5053079;28;20033;-42
2022/11/06 00:25:15;;;;;;;84.68;45.20;;;;;;;12.43;67.91;99359.88;5052775;28;20055;-42
2022/11/06 00:27:42;;;;;;;75.97;44.00;;;;;;;12.28;68.27;99351.41;5052984;28;20025;-41
2022/11/06 00:30:10;;;;;;;73.70;44.17;;;;;;;12.05;69.74;99358.28;5052871;28;20055;-43
2022/11/06 00:32:36;;;;;;;74.47;42.63;;;;;;;12.01;69.68;99353.59;5052621;28;20052;-43
2022/11/06 00:35:03;;;;;;;75.20;43.45;;;;;;;11.77;70.36;99342.75;5052588;28;20052;-41
2022/11/06 00:37:28;;;;;;;79.05;45.70;;;;;;;11.67;71.92;99345.09;5052567;28;20441;-43
2022/11/06 00:39:53;;;;;;;79.18;46.00;;;;;;;11.90;70.71;99355.97;5052240;28;20032;-43
2022/11/06 00:42:19;;;;;;;83.03;44.00;;;;;;;11.82;71.07;99363.41;5052122;28;20040;-41
2022/11/06 00:44:44;;;;;;;84.50;45.58;;;;;;;11.87;70.80;99340.38;5051742;28;20021;-41
2022/11/06 00:47:10;;;;;;;80.65;44.70;;;;;;;11.92;70.21;99355.75;5052323;28;20025;-42
2022/11/06 00:49:36;;;;;;;86.53;48.72;;;;;;;11.90;71.32;99366.63;5052353;28;20497;-43
2022/11/06 00:52:01;;;;;;;71.13;44.33;;;;;;;11.78;70.82;99372.88;5052379;28;20047;-44
2022/11/06 00:54:27;;;;;;;82.30;45.33;;;;;;;11.95;70.75;99367.81;5052672;28;20104;-41
2022/11/06 00:56:52;;;;;;;79.70;44.97;;;;;;;12.01;70.13;99372.25;5052404;28;20029;-41
2022/11/06 00:59:17;;;;;;;85.63;46.47;;;;;;;12.17;70.13;99366.34;5052226;28;20028;-41
2022/11/06 01:01:44;;;;;;;82.57;47.67;;;;;;;12.25;69.53;99365.22;5051539;28;20461;-41
2022/11/06 01:04:12;;;;;;;78.68;46.70;;;;;;;11.98;70.16;99362.88;5032168;28;20397;-41
2022/11/06 01:06:42;;;;;;;81.55;46.55;;;;;;;11.70;71.05;99366.78;5043928;28;20060;-42
2022/11/06 01:09:08;;;;;;;78.38;47.00;;;;;;;11.60;71.42;99369.16;5052091;28;20051;-42
2022/11/06 01:11:36;;;;;;;80.32;46.30;;;;;;;11.33;72.25;99380.03;5052089;28;20040;-42
2022/11/06 01:14:03;;;;;;;77.13;45.67;;;;;;;11.15;73.70;99377.28;5052031;28;20162;-42
2022/11/06 01:16:29;;;;;;;77.00;44.72;;;;;;;11.10;74.03;99379.78;5051955;28;20122;-42
2022/11/06 01:18:56;;;;;;;81.43;44.58;;;;;;;11.11;73.97;99370.78;5051905;28;20188;-43
2022/11/06 01:21:21;;;;;;;83.85;47.20;;;;;;;11.50;72.01;99388.31;5052074;28;20100;-42
2022/11/06 01:23:52;;;;;;;73.72;44.22;;;;;;;11.55;71.90;99377.78;5051883;28;20480;-43
2022/11/06 01:26:18;;;;;;;78.93;43.97;;;;;;;11.45;71.46;99364.16;5052017;28;20039;-43
2022/11/06 01:28:43;;;;;;;78.53;44.35;;;;;;;11.15;72.73;99371.97;5051903;28;20029;-42
2022/11/06 01:31:20;;;;;;;81.82;45.95;;;;;;;11.17;73.02;99377.91;5051520;28;20056;-43
2022/11/06 01:33:46;;;;;;;81.18;44.50;;;;;;;11.17;73.09;99377.09;5051811;28;20103;-43
2022/11/06 01:36:13;;;;;;;80.32;44.50;;;;;;;11.00;73.79;99379.44;5051656;28;20029;-42
2022/11/06 01:38:44;;;;;;;79.18;43.78;;;;;;;11.08;74.38;99376.53;5051743;28;20031;-42
2022/11/06 01:41:21;;;;;;;73.38;44.58;;;;;;;11.35;73.22;99369.97;5051029;28;20112;-43
2022/11/06 01:44:15;;;;;;;77.45;46.35;;;;;;;11.35;72.89;99367.31;5051325;28;20378;-43
2022/11/06 01:46:41;;;;;;;87.60;47.90;;;;;;;11.36;73.06;99365.47;5042800;28;20044;-43
2022/11/06 01:49:14;;;;;;;84.25;45.72;;;;;;;11.46;71.85;99370.28;5051353;28;20028;-42
2022/11/06 01:51:45;;;;;;;83.55;48.00;;;;;;;11.46;72.41;99370.28;5051206;28;20470;-42
2022/11/06 01:54:12;;;;;;;83.97;47.08;;;;;;;11.44;72.14;99356.38;5051238;28;20477;-42
2022/11/06 01:56:38;;;;;;;82.40;47.00;;;;;;;11.52;71.67;99372.09;5050702;28;20492;-43
2022/11/06 01:59:06;;;;;;;84.60;48.83;;;;;;;11.59;72.15;99378.16;5051130;28;20028;-42
2022/11/06 02:01:32;;;;;;;80.07;47.15;;;;;;;11.72;70.77;99383.38;5051168;28;20034;-43
2022/11/06 02:04:11;;;;;;;79.93;45.90;;;;;;;11.59;71.04;99378.16;5051106;28;20114;-43
2022/11/06 02:06:37;;;;;;;88.93;47.13;;;;;;;11.33;71.64;99385.38;5051031;28;20029;-41
2022/11/06 02:09:10;;;;;;;77.68;45.63;;;;;;;11.24;72.72;99373.34;5051015;28;20031;-42
2022/11/06 02:11:36;;;;;;;83.85;46.42;;;;;;;11.25;72.19;99359.00;5051087;28;20032;-41
2022/11/06 02:14:39;;;;;;;81.15;46.47;;;;;;;11.19;72.48;99356.38;5050947;28;20458;-41
2022/11/06 02:17:37;;;;;;;85.88;47.20;;;;;;;11.20;73.63;99366.81;5035484;28;20087;-41
2022/11/06 02:20:26;;;;;;;81.10;47.38;;;;;;;11.57;72.81;99374.91;5013677;28;20037;-41
2022/11/06 02:23:06;;;;;;;79.72;46.10;;;;;;;11.26;72.29;99365.94;5050797;28;20029;-42
2022/11/06 02:26:06;;;;;;;77.90;44.05;;;;;;;11.20;73.18;99369.47;5050535;28;20144;-41
2022/11/06 02:28:38;;;;;;;84.75;46.30;;;;;;;11.25;72.43;99382.13;5050577;28;20410;-42
2022/11/06 02:31:10;;;;;;;80.20;46.17;;;;;;;11.40;72.15;99385.28;5050601;28;20016;-42
2022/11/06 02:33:42;;;;;;;81.90;46.38;;;;;;;11.36;71.72;99376.09;5051074;28;20029;-41
2022/11/06 02:36:13;;;;;;;79.93;47.30;;;;;;;11.39;72.50;99367.69;5050686;28;20025;-41
2022/11/06 02:38:43;;;;;;;85.05;47.65;;;;;;;11.24;72.63;99367.22;5050898;28;20443;-42
2022/11/06 02:41:18;;;;;;;80.60;48.03;;;;;;;11.18;72.76;99366.22;5050658;28;20104;-41
2022/11/06 02:43:49;;;;;;;82.10;45.83;;;;;;;11.05;73.10;99372.44;5051025;28;20493;-42
2022/11/06 02:46:24;;;;;;;77.78;45.38;;;;;;;10.97;73.30;99380.72;5051123;28;20257;-42
2022/11/06 02:48:55;;;;;;;82.07;45.83;;;;;;;11.24;72.79;99365.34;5050875;28;20020;-41
2022/11/06 02:51:27;;;;;;;78.35;46.90;;;;;;;11.34;72.41;99373.66;5050676;28;20043;-42
2022/11/06 02:53:57;;;;;;;76.53;45.10;;;;;;;11.15;72.68;99388.75;5050520;28;20025;-42
2022/11/06 02:56:24;;;;;;;;;;;;;;;11.27;72.77;99374.75;5051078;28;20021;-42
2022/11/06 02:59:00;;;;;;;81.07;46.60;;;;;;;11.10;73.45;99380.63;5049747;28;19921;-41
2022/11/06 03:01:38;;;;;;;80.18;46.08;;;;;;;11.00;73.25;99388.25;5050371;28;20463;-42
2022/11/06 03:04:21;;;;;;;84.63;46.90;;;;;;;11.04;73.47;99385.97;5050485;28;20091;-41
2022/11/06 03:06:56;;;;;;;76.75;45.72;;;;;;;11.10;73.11;99377.13;5050435;28;20029;-42
2022/11/06 03:09:27;;;;;;;83.28;47.90;;;;;;;11.13;73.93;99374.03;5050560;28;20052;-41
2022/11/06 03:12:00;;;;;;;79.00;46.10;;;;;;;10.95;73.99;99378.25;5050834;28;20028;-41
2022/11/06 03:14:33;;;;;;;84.43;46.13;;;;;;;11.01;73.56;99391.75;5050572;28;20106;-41
2022/11/06 03:17:30;;;;;;;78.85;44.92;;;;;;;11.05;73.49;99382.28;5050280;28;20025;-41
2022/11/06 03:20:16;;;;;;;86.90;47.08;;;;;;;10.94;74.38;99387.25;5048969;28;20040;-41
2022/11/06 03:22:47;;;;;;;84.57;46.65;;;;;;;10.96;74.61;99374.53;5050387;28;20029;-41
2022/11/06 03:25:34;;;;;;;82.45;46.90;;;;;;;11.16;73.97;99384.28;5050385;28;20055;-41
2022/11/06 03:28:09;;;;;;;87.13;47.38;;;;;;;11.33;72.48;99377.38;5050544;28;20048;-43
2022/11/06 03:30:44;;;;;;;86.88;47.17;;;;;;;11.02;73.60;99382.72;5050558;28;20033;-41
2022/11/06 03:33:22;;;;;;;80.63;46.40;;;;;;;11.00;73.48;99380.25;5050501;28;20027;-42
2022/11/06 03:35:56;;;;;;;82.40;46.75;;;;;;;11.12;73.65;99375.09;5050597;28;20049;-42
2022/11/06 03:38:26;;;;;;;84.72;48.35;;;;;;;11.22;72.65;99385.25;5050692;28;20025;-42
2022/11/06 03:40:57;;;;;;;83.10;47.08;;;;;;;11.12;73.39;99378.56;5050525;28;20190;-42
2022/11/06 03:43:27;;;;;;;78.10;46.22;;;;;;;10.91;74.14;99378.91;5050613;28;20481;-42
2022/11/06 03:45:56;;;;;;;79.93;46.75;;;;;;;10.92;73.80;99388.50;5050639;28;20086;-42
2022/11/06 03:48:33;;;;;;;84.65;47.25;;;;;;;10.88;74.34;99382.00;5050383;28;20473;-42
2022/11/06 03:51:07;;;;;;;81.88;45.58;;;;;;;10.98;74.13;99376.19;5050359;28;20032;-42
2022/11/06 03:53:48;;;;;;;78.45;45.90;;;;;;;11.02;74.79;99372.88;5050198;28;20079;-42
2022/11/06 03:56:38;;;;;;;81.20;46.60;;;;;;;11.15;74.37;99370.13;5050095;28;20032;-42
2022/11/06 03:59:05;;;;;;;78.28;45.97;;;;;;;11.20;74.51;99374.81;5049896;28;20032;-42
2022/11/06 04:01:35;;;;;;;81.38;44.40;;;;;;;11.14;74.53;99379.16;5050484;28;20024;-43
2022/11/06 04:04:13;;;;;;;81.43;46.47;;;;;;;11.08;74.41;99365.88;5048998;28;20052;-41
2022/11/06 04:06:46;;;;;;;76.80;43.60;;;;;;;11.19;74.47;99373.16;5050388;28;20060;-42
2022/11/06 04:14:50;;;;;;;83.65;45.92;;;;;;;11.33;72.82;99390.69;5050303;28;20122;-42
2022/11/06 04:17:17;;;;;;;80.28;44.33;;;;;;;11.20;74.01;99396.13;5049934;28;20070;-41
2022/11/06 04:19:55;;;;;;;83.20;45.38;;;;;;;11.41;73.12;99396.78;5053143;28;20037;-41
2022/11/06 04:22:37;;;;;;;74.78;42.92;;;;;;;10.95;74.96;99394.22;5053772;28;20029;-41
2022/11/06 04:28:29;;;;;;;76.10;46.03;;;;;;;11.05;75.32;99387.63;5053639;28;20044;-41
2022/11/06 04:31:00;;;;;;;82.65;46.53;;;;;;;10.89;75.35;99389.78;5053514;28;20039;-41
2022/11/06 04:33:36;;;;;;;88.65;46.58;;;;;;;10.97;75.04;99394.03;5052881;28;20028;-41
2022/11/06 04:36:30;;;;;;;82.38;46.50;;;;;;;10.79;76.75;99401.91;5052952;28;20052;-42
2022/11/06 04:39:01;;;;;;;85.00;47.28;;;;;;;10.73;76.91;99392.91;5053361;28;20032;-43
2022/11/06 04:41:50;;;;;;;89.38;48.30;;;;;;;10.71;76.53;99387.00;5052671;28;20060;-43
2022/11/06 04:44:37;;;;;;;96.20;51.25;;;;;;;10.47;76.73;99383.22;5053166;28;20021;-43
2022/11/06 04:47:11;;;;;;;95.45;52.45;;;;;;;10.74;75.92;99381.25;5053538;28;20110;-43
2022/11/06 04:49:39;;;;;;;97.35;52.67;;;;;;;10.64;75.33;99387.03;5053436;28;20445;-43
2022/11/06 04:52:10;;;;;;;91.55;50.33;;;;;;;10.69;75.71;99384.53;5053008;28;20188;-43
2022/11/06 04:54:35;;;;;;;96.03;51.45;;;;;;;10.69;75.64;99389.88;5053068;28;20032;-43
2022/11/06 04:57:02;;;;;;;92.07;51.28;;;;;;;10.75;75.64;99399.66;5052784;28;20029;-43
2022/11/06 04:59:31;;;;;;;88.85;49.90;;;;;;;10.94;74.85;99408.56;5052849;28;20020;-43
2022/11/06 05:01:56;;;;;;;86.80;49.72;;;;;;;10.99;74.56;99405.28;5053221;28;20430;-42
2022/11/06 05:04:21;;;;;;;95.47;49.65;;;;;;;10.85;76.06;99401.03;5053011;28;20180;-42
2022/11/06 05:06:47;;;;;;;88.10;48.53;;;;;;;11.04;75.58;99397.47;5052792;28;20020;-43
2022/11/06 05:09:12;;;;;;;84.97;47.67;;;;;;;11.12;75.26;99394.53;5052992;28;20025;-43
2022/11/06 05:11:38;;;;;;;90.07;48.97;;;;;;;11.20;74.05;99393.44;5052685;28;20096;-43
2022/11/06 05:14:03;;;;;;;86.18;49.88;;;;;;;11.15;75.39;99399.41;5052658;28;20119;-41
2022/11/06 05:16:29;;;;;;;86.20;49.10;;;;;;;11.05;75.31;99392.94;5052654;28;20079;-42
2022/11/06 05:18:54;;;;;;;83.20;47.90;;;;;;;11.20;74.84;99404.09;5052831;28;20047;-42
2022/11/06 05:24:04;;;;;;;88.75;49.50;;;;;;;10.93;75.91;99424.78;5053428;28;20123;-44
2022/11/06 05:26:30;;;;;;;86.53;48.90;;;;;;;11.24;75.26;99420.47;5052561;28;20461;-44
2022/11/06 05:28:55;;;;;;;85.72;49.00;;;;;;;11.53;73.44;99427.00;5052242;28;20388;-41
2022/11/06 05:31:21;;;;;;;84.07;48.00;;;;;;;11.32;74.19;99423.69;5051217;28;20025;-44
2022/11/06 05:33:46;;;;;;;130.23;74.22;;;;;;;11.28;74.84;99435.81;5052305;28;20029;-43
2022/11/06 05:36:12;;;;;;;145.70;85.93;;;;;;;11.38;74.58;99429.19;5052318;28;20029;-43
2022/11/06 05:38:37;;;;;;;129.75;73.35;;;;;;;11.14;76.16;99423.63;5050989;28;20477;-43
2022/11/06 05:41:03;;;;;;;100.82;57.25;;;;;;;11.39;75.05;99428.97;5051018;28;20025;-42
2022/11/06 05:43:28;;;;;;;80.07;47.45;;;;;;;11.43;74.01;99434.69;5052123;28;20056;-42
2022/11/06 05:45:53;;;;;;;85.63;46.78;;;;;;;11.10;75.09;99433.88;5052347;28;20108;-42
2022/11/06 05:48:19;;;;;;;86.82;47.88;;;;;;;11.54;74.02;99445.47;5051809;28;20068;-41
2022/11/06 05:50:44;;;;;;;78.60;45.60;;;;;;;11.68;74.16;99450.69;5052033;28;20021;-47
2022/11/06 05:53:10;;;;;;;78.43;45.75;;;;;;;11.68;74.93;99448.81;5051908;28;20017;-44
2022/11/06 05:55:35;;;;;;;87.03;49.05;;;;;;;11.59;75.37;99459.97;5051636;28;20432;-41
2022/11/06 05:58:01;;;;;;;85.78;48.25;;;;;;;12.00;72.52;99459.47;5051750;28;20017;-42
2022/11/06 06:00:26;;;;;;;76.15;46.08;;;;;;;11.79;73.54;99468.63;5051555;28;20437;-43
2022/11/06 06:02:51;;;;;;;82.32;47.58;;;;;;;12.06;72.49;99468.44;5051520;28;20029;-43
2022/11/06 06:05:17;;;;;;;76.63;46.42;;;;;;;12.00;72.09;99464.78;5051879;28;20193;-43
2022/11/06 06:07:42;;;;;;;96.38;57.20;;;;;;;11.87;73.15;99468.34;5051544;28;20431;-43
2022/11/06 06:10:08;;;;;;;117.25;68.63;;;;;;;11.72;74.17;99476.66;5051313;28;20028;-43
2022/11/06 06:12:34;;;;;;;82.45;48.30;;;;;;;11.78;73.83;99482.19;5051076;28;20091;-43
2022/11/06 06:14:59;;;;;;;80.88;46.88;;;;;;;11.72;74.79;99494.53;5051913;28;20105;-43
2022/11/06 06:17:25;;;;;;;76.25;44.55;;;;;;;12.02;72.75;99496.56;5051273;28;20428;-43
2022/11/06 06:19:50;;;;;;;78.03;45.97;;;;;;;11.69;75.00;99484.28;5051633;28;20050;-42
2022/11/06 06:22:16;;;;;;;78.93;41.78;;;;;;;13.16;72.16;99498.81;5051218;28;20488;-42
2022/11/06 06:24:42;;;;;;;78.18;43.95;;;;;;;12.85;69.33;99498.78;5051230;28;20057;-42
2022/11/06 06:27:08;;;;;;;70.85;43.25;;;;;;;12.59;70.72;99501.75;5051346;28;20139;-44
2022/11/06 06:29:33;;;;;;;74.25;43.38;;;;;;;12.35;70.80;99503.44;5051409;28;20170;-43
2022/11/06 06:31:59;;;;;;;73.30;42.55;;;;;;;12.42;71.48;99520.22;5051625;28;20021;-45
2022/11/06 06:34:24;;;;;;;75.68;43.33;;;;;;;12.29;71.64;99508.63;5051071;28;20543;-42
2022/11/06 06:36:53;;;;;;;70.45;41.85;;;;;;;12.23;72.34;99512.16;5051268;28;20442;-43
2022/11/06 06:39:19;;;;;;;73.82;42.20;;;;;;;12.34;72.29;99515.97;5050953;28;20127;-43
2022/11/06 06:41:46;;;;;;;69.55;41.70;;;;;;;12.36;71.54;99516.56;5050609;28;20028;-43
2022/11/06 06:44:15;;;;;;;71.85;41.67;;;;;;;12.31;72.19;99524.41;5050899;28;20025;-42
2022/11/06 06:46:40;;;;;;;70.07;42.17;;;;;;;12.61;71.13;99521.84;5051184;28;20020;-43
2022/11/06 06:49:06;;;;;;;70.03;41.85;;;;;;;12.54;71.31;99520.28;5051100;28;20123;-43
2022/11/06 06:51:32;;;;;;;75.15;41.33;;;;;;;12.57;71.42;99531.34;5050194;28;20028;-43
2022/11/06 06:53:57;;;;;;;75.90;44.35;;;;;;;12.74;71.21;99531.56;5050748;28;20025;-43
2022/11/06 06:56:23;;;;;;;97.88;57.20;;;;;;;12.62;71.38;99528.00;5050917;28;20092;-43
2022/11/06 06:58:48;;;;;;;69.32;41.67;;;;;;;12.82;70.69;99533.94;5050656;28;20082;-43
2022/11/06 07:01:14;;;;;;;67.18;41.33;;;;;;;12.84;70.50;99542.53;5050669;28;20098;-43
2022/11/06 07:03:40;;;;;;;71.55;43.05;;;;;;;12.68;70.43;99535.13;5050545;28;20025;-42
2022/11/06 07:06:05;;;;;;;68.20;41.28;;;;;;;12.45;71.20;99533.94;5050147;28;20025;-43
2022/11/06 07:08:31;;;;;;;74.15;41.10;;;;;;;12.78;70.96;99545.31;5050487;28;20143;-43
2022/11/06 07:11:17;;;;;;;66.03;40.88;;;;;;;12.77;71.12;99541.78;5049714;28;20059;-43
2022/11/06 07:13:42;;;;;;;66.40;41.53;;;;;;;12.84;71.06;99534.53;5049626;28;20116;-44
2022/11/06 07:16:09;;;;;;;70.95;40.97;;;;;;;12.98;70.85;99555.75;5050007;28;20116;-43
2022/11/06 07:18:36;;;;;;;65.45;39.60;;;;;;;13.08;70.72;99545.34;5049761;28;20032;-44
2022/11/06 07:21:07;;;;;;;70.15;40.83;;;;;;;13.10;70.06;99556.63;5049707;28;20040;-44
2022/11/06 07:23:34;;;;;;;61.85;38.08;;;;;;;13.32;68.93;99540.94;5049316;28;20132;-42
2022/11/06 07:26:00;;;;;;;62.45;38.40;;;;;;;13.29;69.80;99554.75;5049142;28;20223;-44
2022/11/06 07:28:25;;;;;;;57.13;36.90;;;;;;;13.43;69.57;99548.19;5044063;28;20475;-44
2022/11/06 07:30:51;;;;;;;60.38;36.60;;;;;;;13.48;69.25;99558.22;5048617;28;20021;-44
2022/11/06 07:33:16;;;;;;;59.22;36.63;;;;;;;13.55;69.57;99550.91;5050028;28;20103;-43
2022/11/06 07:35:42;;;;;;;60.70;36.10;;;;;;;13.94;68.95;99546.03;5049626;28;20111;-43
2022/11/06 07:38:07;;;;;;;54.20;34.28;;;;;;;14.14;67.27;99550.22;5049362;28;20051;-44
2022/11/06 07:40:34;;;;;;;54.30;33.20;;;;;;;14.17;67.71;99553.25;5049396;28;20083;-43
2022/11/06 07:43:06;;;;;;;52.05;30.88;;;;;;;13.95;69.44;99536.13;5048615;28;20032;-44
2022/11/06 07:45:33;;;;;;;46.45;30.40;;;;;;;14.36;68.24;99555.84;5048312;28;20056;-43
2022/11/06 07:47:58;;;;;;;53.85;29.80;;;;;;;14.96;66.37;99546.69;5048009;28;20025;-43
2022/11/06 07:50:25;;;;;;;48.38;29.23;;;;;;;14.79;66.48;99547.44;5048086;28;20490;-39
2022/11/06 07:52:51;;;;;;;50.15;30.85;;;;;;;14.61;67.25;99548.38;5049358;28;20100;-39
2022/11/06 07:55:16;;;;;;;53.67;33.65;;;;;;;14.65;66.42;99560.25;5052945;28;20096;-38
2022/11/06 07:57:42;;;;;;;62.30;32.90;;;;;;;14.42;67.25;99563.75;5053031;28;20021;-36
2022/11/06 08:00:08;;;;;;;55.72;32.88;;;;;;;14.18;68.46;99565.56;5053527;28;20111;-37
2022/11/06 08:02:33;;;;;;;62.83;35.58;;;;;;;14.41;67.39;99566.63;5053425;28;20323;-37
2022/11/06 08:04:59;;;;;;;60.00;32.58;;;;;;;14.48;66.55;99567.34;5053737;28;20044;-37
2022/11/06 08:07:24;;;;;;;52.63;31.80;;;;;;;15.32;65.35;99579.56;5050780;28;20589;-37
2022/11/06 08:09:50;;;;;;;51.00;29.77;;;;;;;15.32;64.04;99583.06;5052736;28;20089;-37
2022/11/06 08:12:15;;;;;;;47.90;28.95;;;;;;;15.13;64.80;99579.75;5052965;28;20515;-36
2022/11/06 08:14:40;;;;;;;50.33;28.90;;;;;;;14.93;66.64;99587.38;5052245;28;20029;-36
2022/11/06 08:17:06;;;;;;;46.40;27.95;;;;;;;14.57;67.70;99584.72;5052701;28;20469;-36
2022/11/06 08:19:31;;;;;;;42.70;25.27;;;;;;;14.77;67.66;99591.56;5052240;28;20116;-36
2022/11/06 08:21:57;;;;;;;40.25;25.75;;;;;;;15.35;65.90;99611.28;5052497;28;20033;-36
2022/11/06 08:24:22;;;;;;;39.15;24.88;;;;;;;15.32;65.70;99614.44;5052577;28;20043;-37
2022/11/06 08:26:48;;;;;;;44.50;25.40;;;;;;;15.07;66.36;99609.38;5052014;28;20021;-37
2022/11/06 08:29:14;;;;;;;38.72;24.35;;;;;;;14.95;67.14;99610.19;5051664;28;20021;-37
2022/11/06 08:31:39;;;;;;;37.88;24.52;;;;;;;14.97;67.47;99612.66;5052232;28;20027;-38
2022/11/06 08:34:05;;;;;;;39.65;25.02;;;;;;;14.83;68.21;99612.06;5052365;28;20044;-37
2022/11/06 08:36:34;;;;;;;45.25;24.02;;;;;;;15.21;67.85;99624.13;5052162;28;20079;-37
2022/11/06 08:39:00;;;;;;;39.38;24.60;;;;;;;15.52;65.63;99633.59;5051784;28;20025;-37
2022/11/06 08:41:25;;;;;;;39.28;24.67;;;;;;;15.32;66.00;99639.34;5052039;28;20032;-37
2022/11/06 08:43:51;;;;;;;39.60;25.33;;;;;;;15.21;66.67;99645.56;5051894;28;20033;-36
2022/11/06 08:46:16;;;;;;;42.25;24.70;;;;;;;14.96;67.25;99643.16;5052187;28;20079;-36
2022/11/06 08:48:42;;;;;;;35.75;23.27;;;;;;;14.97;66.93;99642.94;5052429;28;20025;-36
2022/11/06 08:51:07;;;;;;;36.78;23.45;;;;;;;15.68;65.53;99644.63;5051909;28;20017;-37
2022/11/06 08:53:33;;;;;;;37.28;23.67;;;;;;;15.45;65.81;99638.28;5051909;28;20113;-37
2022/11/06 08:56:02;;;;;;;38.88;22.20;;;;;;;15.43;65.81;99632.34;5051666;28;20029;-38
2022/11/06 08:58:28;;;;;;;39.07;24.20;;;;;;;14.83;67.44;99623.63;5051569;28;20231;-36
2022/11/06 09:00:53;;;;;;;38.25;21.73;;;;;;;14.52;69.34;99618.56;5051426;28;20287;-37
2022/11/06 09:03:18;;;;;;;33.38;21.05;;;;;;;14.61;69.92;99622.56;5051473;28;20217;-37
2022/11/06 09:05:44;;;;;;;33.33;20.92;;;;;;;14.69;70.53;99606.13;5051042;28;20031;-38
2022/11/06 09:08:11;;;;;;;37.63;22.08;;;;;;;15.46;68.25;99623.84;5051107;28;20469;-37
2022/11/06 09:10:38;;;;;;;33.33;20.33;;;;;;;15.61;67.78;99631.34;5050597;28;20178;-37
2022/11/06 09:13:03;;;;;;;36.17;21.88;;;;;;;15.25;69.31;99623.44;5051222;28;20496;-37
2022/11/06 09:15:28;;;;;;;33.85;21.58;;;;;;;15.15;69.55;99627.75;5051224;28;20032;-37
2022/11/06 09:17:54;;;;;;;42.22;23.42;;;;;;;15.14;70.94;99634.97;5051215;28;20021;-38
2022/11/06 09:20:22;;;;;;;32.38;21.98;;;;;;;15.17;70.65;99641.72;5051069;28;20039;-36
2022/11/06 09:22:47;;;;;;;50.53;26.63;;;;;;;15.35;70.25;99646.94;5050671;28;20061;-37
2022/11/06 09:25:14;;;;;;;50.88;30.38;;;;;;;16.11;67.86;99640.63;5050494;28;20654;-36
2022/11/06 09:27:48;;;;;;;33.50;22.45;;;;;;;15.91;69.61;99612.34;5050454;28;20025;-44
2022/11/06 09:30:16;;;;;;;42.92;23.52;;;;;;;15.52;72.02;99622.88;5050322;28;20025;-44
2022/11/06 09:32:52;;;;;;;40.60;24.13;;;;;;;15.48;71.44;99608.31;5050262;28;20044;-43
2022/11/06 09:35:18;;;;;;;38.75;23.30;;;;;;;15.14;73.46;99600.16;5050629;28;20107;-45
2022/11/06 09:37:44;;;;;;;38.03;23.35;;;;;;;15.13;73.09;99619.94;5050793;28;20103;-44
2022/11/06 09:40:20;;;;;;;39.42;23.00;;;;;;;15.05;73.97;99607.72;5050804;28;20109;-46
2022/11/06 09:43:12;;;;;;;40.78;23.67;;;;;;;15.78;72.12;99594.69;5050244;28;20025;-45
2022/11/06 09:45:39;;;;;;;41.33;23.83;;;;;;;15.59;74.17;99593.22;5050041;28;20029;-44
2022/11/06 09:48:29;;;;;;;46.88;26.00;;;;;;;15.15;75.27;99596.41;5050757;28;20099;-44
2022/11/06 09:51:11;;;;;;;49.15;29.75;;;;;;;14.96;78.34;99609.13;5049767;28;20369;-43
2022/11/06 09:53:47;;;;;;;47.05;29.58;;;;;;;15.01;77.31;99614.59;5050028;28;20027;-46
2022/11/06 09:56:15;;;;;;;52.90;32.97;;;;;;;15.71;74.61;99614.66;5050391;28;20500;-43
2022/11/06 09:58:43;;;;;;;54.60;32.28;;;;;;;15.42;75.11;99617.31;5050329;28;20405;-43
2022/11/06 10:01:18;;;;;;;49.97;31.27;;;;;;;15.23;75.11;99628.22;5049865;28;20021;-43
2022/11/06 10:03:58;;;;;;;57.85;33.38;;;;;;;14.92;77.69;99625.94;5049604;28;20056;-45
2022/11/06 10:06:25;;;;;;;57.47;34.08;;;;;;;14.77;77.54;99626.41;5030233;28;20060;-44
2022/11/06 10:08:54;;;;;;;49.92;31.35;;;;;;;14.85;77.18;99626.88;5044804;28;20039;-44
2022/11/06 10:11:43;;;;;;;48.38;30.45;;;;;;;14.81;76.09;99623.03;5049756;28;20051;-44
2022/11/06 10:14:26;;;;;;;48.35;30.35;;;;;;;14.72;78.09;99626.31;5049825;28;20382;-43
2022/11/06 10:17:08;;;;;;;44.97;29.98;;;;;;;15.30;73.93;99608.50;5049164;28;20039;-45
2022/11/06 10:19:48;;;;;;;48.65;28.92;;;;;;;15.08;74.01;99619.00;5050021;28;20116;-44
2022/11/06 10:22:16;;;;;;;43.20;28.55;;;;;;;15.01;74.67;99617.28;5049932;28;20452;-43
2022/11/06 10:24:51;;;;;;;42.90;28.67;;;;;;;14.77;76.65;99613.81;5049379;28;20136;-45
2022/11/06 10:27:24;;;;;;;43.28;28.65;;;;;;;14.39;78.49;99607.06;5049569;28;20021;-45
2022/11/06 10:30:16;;;;;;;42.38;28.67;;;;;;;14.60;78.67;99607.53;5049390;28;20021;-50
2022/11/06 10:33:02;;;;;;;47.75;27.63;;;;;;;15.01;77.27;99608.44;5049685;28;20025;-45
2022/11/06 10:35:27;;;;;;;38.45;26.65;;;;;;;15.37;74.06;99609.97;5049615;28;20056;-45
2022/11/06 10:38:14;;;;;;;43.65;27.15;;;;;;;15.38;74.04;99610.78;5049666;28;20350;-44
2022/11/06 10:40:43;;;;;;;42.13;25.83;;;;;;;15.28;74.95;99605.25;5042552;28;20481;-45
2022/11/06 10:43:36;;;;;;;40.07;26.83;;;;;;;14.77;76.77;99611.13;5030600;28;20060;-46
2022/11/06 10:46:28;;;;;;;40.90;26.17;;;;;;;14.95;75.47;99615.56;5048301;28;20523;-45
2022/11/06 10:49:00;;;;;;;41.92;27.95;;;;;;;15.10;76.38;99609.72;5050250;28;20180;-44
2022/11/06 10:51:51;;;;;;;41.67;27.42;;;;;;;15.70;72.53;99611.13;5049893;28;20100;-42
2022/11/06 10:54:37;;;;;;;43.65;27.70;;;;;;;15.27;74.91;99612.47;5050509;28;20044;-46
2022/11/06 10:57:02;;;;;;;40.65;27.83;;;;;;;15.11;74.87;99605.16;5049616;28;20054;-43
2022/11/06 10:59:28;;;;;;;48.78;30.05;;;;;;;15.03;77.05;99606.34;5049107;28;20449;-44
2022/11/06 11:01:53;;;;;;;45.30;29.52;;;;;;;15.29;75.40;99607.69;5048944;28;20519;-43
2022/11/06 11:04:19;;;;;;;43.30;27.85;;;;;;;15.66;72.57;99596.56;5047872;28;20378;-43
2022/11/06 11:06:44;;;;;;;45.13;28.73;;;;;;;15.31;74.08;99592.19;5050350;28;20021;-43
2022/11/06 11:09:30;;;;;;;43.38;28.50;;;;;;;15.30;74.49;99593.22;5047373;28;20041;-44
2022/11/06 11:11:56;;;;;;;41.83;28.05;;;;;;;15.43;74.27;99594.81;5039125;28;20100;-43
2022/11/06 11:14:24;;;;;;;44.75;28.70;;;;;;;16.11;72.29;99594.97;5030852;28;20017;-43
2022/11/06 11:16:50;;;;;;;42.08;28.08;;;;;;;15.89;72.04;99593.00;5038521;28;20021;-42
2022/11/06 11:19:37;;;;;;;42.92;27.25;;;;;;;15.50;73.29;99575.88;5031219;28;20493;-46
2022/11/06 11:22:16;;;;;;;44.30;27.50;;;;;;;15.12;75.36;99590.72;5030382;28;20060;-44
2022/11/06 11:25:06;;;;;;;47.80;27.33;;;;;;;15.99;72.96;99589.66;5030489;28;20103;-43
2022/11/06 11:27:41;;;;;;;43.30;27.92;;;;;;;15.76;72.74;99579.88;5031820;28;20026;-41
2022/11/06 11:30:20;;;;;;;41.80;26.80;;;;;;;15.56;73.68;99566.91;5034020;28;20026;-44
2022/11/06 11:32:45;;;;;;;43.67;27.90;;;;;;;15.63;74.41;99573.75;5034701;28;20021;-42
2022/11/06 11:35:17;;;;;;;44.58;27.88;;;;;;;16.39;71.51;99572.56;5034644;28;20033;-44
2022/11/06 11:37:42;;;;;;;39.85;26.42;;;;;;;16.38;69.62;99573.66;5034513;28;20064;-43
2022/11/06 11:40:21;;;;;;;41.70;27.23;;;;;;;16.33;71.02;99568.19;5034085;28;20065;-43
2022/11/06 11:42:47;;;;;;;38.03;25.80;;;;;;;16.36;71.21;99578.47;5036245;28;20033;-43
2022/11/06 11:45:20;;;;;;;42.00;26.90;;;;;;;16.35;71.67;99574.13;5053970;28;20025;-43